sensor_id;sensor_type;location;lat;lon;timestamp;temperature;humidity
13115;DHT22;6623;52.120;8.660;2022-10-16T00:01:35;14.40;88.50
13115;DHT22;6623;52.120;8.660;2022-10-16T00:04:00;14.70;88.60
13115;DHT22;6623;52.120;8.660;2022-10-16T00:06:26;13.40;88.10
13115;DHT22;6623;52.120;8.660;2022-10-16T00:08:52;13.40;87.90
13115;DHT22;6623;52.120;8.660;2022-10-16T00:11:19;13.40;88.20
13115;DHT22;6623;52.120;8.660;2022-10-16T00:13:45;14.20;89.00
13115;DHT22;6623;52.120;8.660;2022-10-16T00:16:15;13.30;88.00
13115;DHT22;6623;52.120;8.660;2022-10-16T00:18:40;13.30;88.50
13115;DHT22;6623;52.120;8.660;2022-10-16T00:21:11;13.60;88.70
13115;DHT22;6623;52.120;8.660;2022-10-16T00:23:37;13.30;88.70
13115;DHT22;6623;52.120;8.660;2022-10-16T00:26:03;13.30;88.80
13115;DHT22;6623;52.120;8.660;2022-10-16T00:28:38;13.30;88.90
13115;DHT22;6623;52.120;8.660;2022-10-16T00:31:07;13.30;89.60
13115;DHT22;6623;52.120;8.660;2022-10-16T00:33:34;14.60;89.90
13115;DHT22;6623;52.120;8.660;2022-10-16T00:36:00;13.60;89.40
13115;DHT22;6623;52.120;8.660;2022-10-16T00:38:29;13.30;89.10
13115;DHT22;6623;52.120;8.660;2022-10-16T00:40:54;13.20;89.10
13115;DHT22;6623;52.120;8.660;2022-10-16T00:46:03;13.20;89.50
13115;DHT22;6623;52.120;8.660;2022-10-16T00:48:29;13.20;89.30
13115;DHT22;6623;52.120;8.660;2022-10-16T00:50:58;13.20;89.40
13115;DHT22;6623;52.120;8.660;2022-10-16T00:53:24;13.60;89.70
13115;DHT22;6623;52.120;8.660;2022-10-16T00:55:50;14.20;90.00
13115;DHT22;6623;52.120;8.660;2022-10-16T00:58:15;13.20;89.60
13115;DHT22;6623;52.120;8.660;2022-10-16T01:00:44;13.20;89.60
13115;DHT22;6623;52.120;8.660;2022-10-16T01:03:29;13.10;89.50
13115;DHT22;6623;52.120;8.660;2022-10-16T01:06:01;13.10;89.40
13115;DHT22;6623;52.120;8.660;2022-10-16T01:11:42;13.10;89.70
13115;DHT22;6623;52.120;8.660;2022-10-16T01:14:19;13.10;89.80
13115;DHT22;6623;52.120;8.660;2022-10-16T01:16:53;13.00;89.70
13115;DHT22;6623;52.120;8.660;2022-10-16T01:21:46;13.50;90.10
13115;DHT22;6623;52.120;8.660;2022-10-16T01:26:50;13.00;90.00
13115;DHT22;6623;52.120;8.660;2022-10-16T01:31:47;13.00;90.10
13115;DHT22;6623;52.120;8.660;2022-10-16T01:34:22;13.80;90.20
13115;DHT22;6623;52.120;8.660;2022-10-16T01:36:55;14.40;90.30
13115;DHT22;6623;52.120;8.660;2022-10-16T01:39:22;12.90;90.00
13115;DHT22;6623;52.120;8.660;2022-10-16T01:41:55;13.40;90.10
13115;DHT22;6623;52.120;8.660;2022-10-16T01:44:25;12.90;90.00
13115;DHT22;6623;52.120;8.660;2022-10-16T01:46:52;12.90;90.00
13115;DHT22;6623;52.120;8.660;2022-10-16T01:49:20;14.60;90.40
13115;DHT22;6623;52.120;8.660;2022-10-16T01:51:54;13.20;90.10
13115;DHT22;6623;52.120;8.660;2022-10-16T01:54:20;12.80;90.00
13115;DHT22;6623;52.120;8.660;2022-10-16T01:56:48;12.80;90.00
13115;DHT22;6623;52.120;8.660;2022-10-16T01:59:27;12.80;90.00
13115;DHT22;6623;52.120;8.660;2022-10-16T02:01:54;12.80;90.00
13115;DHT22;6623;52.120;8.660;2022-10-16T02:04:34;13.10;90.10
13115;DHT22;6623;52.120;8.660;2022-10-16T02:07:01;12.80;90.00
13115;DHT22;6623;52.120;8.660;2022-10-16T02:09:27;13.30;90.20
13115;DHT22;6623;52.120;8.660;2022-10-16T02:11:55;12.70;90.00
13115;DHT22;6623;52.120;8.660;2022-10-16T02:14:21;14.00;90.30
13115;DHT22;6623;52.120;8.660;2022-10-16T02:16:49;13.10;90.10
13115;DHT22;6623;52.120;8.660;2022-10-16T02:19:15;13.40;90.20
13115;DHT22;6623;52.120;8.660;2022-10-16T02:21:44;13.60;90.40
13115;DHT22;6623;52.120;8.660;2022-10-16T02:24:17;13.10;90.30
13115;DHT22;6623;52.120;8.660;2022-10-16T02:26:51;12.60;90.30
13115;DHT22;6623;52.120;8.660;2022-10-16T02:29:18;12.60;90.30
13115;DHT22;6623;52.120;8.660;2022-10-16T02:31:49;12.90;90.30
13115;DHT22;6623;52.120;8.660;2022-10-16T02:34:16;12.60;90.20
13115;DHT22;6623;52.120;8.660;2022-10-16T02:36:43;14.10;90.70
13115;DHT22;6623;52.120;8.660;2022-10-16T02:39:09;12.50;90.10
13115;DHT22;6623;52.120;8.660;2022-10-16T02:41:35;12.60;90.20
13115;DHT22;6623;52.120;8.660;2022-10-16T02:44:01;12.50;90.20
13115;DHT22;6623;52.120;8.660;2022-10-16T02:46:26;13.00;90.40
13115;DHT22;6623;52.120;8.660;2022-10-16T02:48:52;12.40;90.20
13115;DHT22;6623;52.120;8.660;2022-10-16T02:51:17;12.60;90.20
13115;DHT22;6623;52.120;8.660;2022-10-16T02:53:43;13.10;90.40
13115;DHT22;6623;52.120;8.660;2022-10-16T02:56:08;12.40;90.30
13115;DHT22;6623;52.120;8.660;2022-10-16T02:58:34;12.30;90.40
13115;DHT22;6623;52.120;8.660;2022-10-16T03:00:59;13.20;90.90
13115;DHT22;6623;52.120;8.660;2022-10-16T03:03:25;13.60;90.70
13115;DHT22;6623;52.120;8.660;2022-10-16T03:05:53;12.50;90.50
13115;DHT22;6623;52.120;8.660;2022-10-16T03:08:19;13.70;90.60
13115;DHT22;6623;52.120;8.660;2022-10-16T03:10:49;12.30;90.30
13115;DHT22;6623;52.120;8.660;2022-10-16T03:13:14;12.20;90.40
13115;DHT22;6623;52.120;8.660;2022-10-16T03:15:40;12.20;90.50
13115;DHT22;6623;52.120;8.660;2022-10-16T03:18:05;13.00;90.70
13115;DHT22;6623;52.120;8.660;2022-10-16T03:20:31;13.90;91.00
13115;DHT22;6623;52.120;8.660;2022-10-16T03:22:56;12.40;90.50
13115;DHT22;6623;52.120;8.660;2022-10-16T03:25:22;12.20;90.50
13115;DHT22;6623;52.120;8.660;2022-10-16T03:27:47;12.20;90.60
13115;DHT22;6623;52.120;8.660;2022-10-16T03:30:13;13.60;90.90
13115;DHT22;6623;52.120;8.660;2022-10-16T03:32:38;12.20;90.50
13115;DHT22;6623;52.120;8.660;2022-10-16T03:35:04;12.20;90.60
13115;DHT22;6623;52.120;8.660;2022-10-16T03:37:30;12.20;90.70
13115;DHT22;6623;52.120;8.660;2022-10-16T03:39:55;13.40;91.10
13115;DHT22;6623;52.120;8.660;2022-10-16T03:42:21;13.20;91.20
13115;DHT22;6623;52.120;8.660;2022-10-16T03:44:46;12.20;91.10
13115;DHT22;6623;52.120;8.660;2022-10-16T03:47:12;12.40;90.90
13115;DHT22;6623;52.120;8.660;2022-10-16T03:49:37;13.60;91.20
13115;DHT22;6623;52.120;8.660;2022-10-16T03:52:03;12.20;90.70
13115;DHT22;6623;52.120;8.660;2022-10-16T03:54:28;13.50;91.10
13115;DHT22;6623;52.120;8.660;2022-10-16T03:56:54;12.60;90.90
13115;DHT22;6623;52.120;8.660;2022-10-16T03:59:19;12.10;90.80
13115;DHT22;6623;52.120;8.660;2022-10-16T04:01:45;13.60;91.20
13115;DHT22;6623;52.120;8.660;2022-10-16T04:04:10;12.90;91.10
13115;DHT22;6623;52.120;8.660;2022-10-16T04:06:36;12.80;91.10
13115;DHT22;6623;52.120;8.660;2022-10-16T04:09:01;12.10;90.90
13115;DHT22;6623;52.120;8.660;2022-10-16T04:11:27;12.20;90.90
13115;DHT22;6623;52.120;8.660;2022-10-16T04:13:53;12.10;90.90
13115;DHT22;6623;52.120;8.660;2022-10-16T04:16:18;12.80;91.10
13115;DHT22;6623;52.120;8.660;2022-10-16T04:18:44;12.80;91.10
13115;DHT22;6623;52.120;8.660;2022-10-16T04:21:09;12.10;90.90
13115;DHT22;6623;52.120;8.660;2022-10-16T04:23:35;13.40;91.30
13115;DHT22;6623;52.120;8.660;2022-10-16T04:26:00;12.00;90.90
13115;DHT22;6623;52.120;8.660;2022-10-16T04:28:26;13.40;91.40
13115;DHT22;6623;52.120;8.660;2022-10-16T04:30:52;13.20;91.40
13115;DHT22;6623;52.120;8.660;2022-10-16T04:33:17;13.40;91.70
13115;DHT22;6623;52.120;8.660;2022-10-16T04:35:43;12.10;91.60
13115;DHT22;6623;52.120;8.660;2022-10-16T04:38:08;12.10;91.70
13115;DHT22;6623;52.120;8.660;2022-10-16T04:40:34;13.10;92.00
13115;DHT22;6623;52.120;8.660;2022-10-16T04:43:02;13.50;92.20
13115;DHT22;6623;52.120;8.660;2022-10-16T04:45:28;12.50;92.10
13115;DHT22;6623;52.120;8.660;2022-10-16T04:47:56;12.20;92.10
13115;DHT22;6623;52.120;8.660;2022-10-16T04:50:22;13.40;92.50
13115;DHT22;6623;52.120;8.660;2022-10-16T04:52:50;12.30;92.30
13115;DHT22;6623;52.120;8.660;2022-10-16T04:55:15;12.40;92.40
13115;DHT22;6623;52.120;8.660;2022-10-16T04:57:41;12.30;92.50
13115;DHT22;6623;52.120;8.660;2022-10-16T05:00:07;13.80;92.90
13115;DHT22;6623;52.120;8.660;2022-10-16T05:02:36;12.40;92.60
13115;DHT22;6623;52.120;8.660;2022-10-16T05:05:01;12.50;92.60
13115;DHT22;6623;52.120;8.660;2022-10-16T05:07:27;12.40;92.50
13115;DHT22;6623;52.120;8.660;2022-10-16T05:09:52;12.50;92.50
13115;DHT22;6623;52.120;8.660;2022-10-16T05:12:18;12.60;92.50
13115;DHT22;6623;52.120;8.660;2022-10-16T05:14:44;12.80;92.50
13115;DHT22;6623;52.120;8.660;2022-10-16T05:17:09;13.40;92.70
13115;DHT22;6623;52.120;8.660;2022-10-16T05:19:35;13.00;92.60
13115;DHT22;6623;52.120;8.660;2022-10-16T05:22:00;13.00;92.60
13115;DHT22;6623;52.120;8.660;2022-10-16T05:24:26;12.50;92.40
13115;DHT22;6623;52.120;8.660;2022-10-16T05:26:51;12.50;92.30
13115;DHT22;6623;52.120;8.660;2022-10-16T05:29:17;12.50;92.20
13115;DHT22;6623;52.120;8.660;2022-10-16T05:31:42;13.80;92.50
13115;DHT22;6623;52.120;8.660;2022-10-16T05:34:08;12.50;92.20
13115;DHT22;6623;52.120;8.660;2022-10-16T05:36:33;13.40;92.40
13115;DHT22;6623;52.120;8.660;2022-10-16T05:38:59;12.60;92.20
13115;DHT22;6623;52.120;8.660;2022-10-16T05:41:24;13.20;92.30
13115;DHT22;6623;52.120;8.660;2022-10-16T05:43:54;12.90;92.30
13115;DHT22;6623;52.120;8.660;2022-10-16T05:46:20;12.40;92.20
13115;DHT22;6623;52.120;8.660;2022-10-16T05:48:45;13.40;92.40
13115;DHT22;6623;52.120;8.660;2022-10-16T05:51:12;12.70;92.20
13115;DHT22;6623;52.120;8.660;2022-10-16T05:53:38;13.50;92.30
13115;DHT22;6623;52.120;8.660;2022-10-16T05:56:04;13.70;92.40
13115;DHT22;6623;52.120;8.660;2022-10-16T05:58:31;11.50;91.80
13115;DHT22;6623;52.120;8.660;2022-10-16T06:01:02;13.00;92.30
13115;DHT22;6623;52.120;8.660;2022-10-16T06:03:28;12.30;92.10
13115;DHT22;6623;52.120;8.660;2022-10-16T06:05:54;12.80;92.40
13115;DHT22;6623;52.120;8.660;2022-10-16T06:08:22;13.10;92.40
13115;DHT22;6623;52.120;8.660;2022-10-16T06:10:48;12.80;92.30
13115;DHT22;6623;52.120;8.660;2022-10-16T06:13:14;13.00;92.30
13115;DHT22;6623;52.120;8.660;2022-10-16T06:15:41;13.30;92.30
13115;DHT22;6623;52.120;8.660;2022-10-16T06:18:09;13.10;92.20
13115;DHT22;6623;52.120;8.660;2022-10-16T06:20:35;12.90;92.20
13115;DHT22;6623;52.120;8.660;2022-10-16T06:23:01;12.50;92.10
13115;DHT22;6623;52.120;8.660;2022-10-16T06:25:26;12.50;91.90
13115;DHT22;6623;52.120;8.660;2022-10-16T06:27:52;13.20;92.20
13115;DHT22;6623;52.120;8.660;2022-10-16T06:30:17;12.60;92.10
13115;DHT22;6623;52.120;8.660;2022-10-16T06:32:46;13.20;92.20
13115;DHT22;6623;52.120;8.660;2022-10-16T06:35:11;13.30;92.20
13115;DHT22;6623;52.120;8.660;2022-10-16T06:37:37;12.70;92.00
13115;DHT22;6623;52.120;8.660;2022-10-16T06:40:03;12.70;92.20
13115;DHT22;6623;52.120;8.660;2022-10-16T06:42:29;12.70;91.80
13115;DHT22;6623;52.120;8.660;2022-10-16T06:44:55;13.70;92.00
13115;DHT22;6623;52.120;8.660;2022-10-16T06:47:20;12.80;91.70
13115;DHT22;6623;52.120;8.660;2022-10-16T06:49:46;14.00;91.90
13115;DHT22;6623;52.120;8.660;2022-10-16T06:52:11;14.40;92.00
13115;DHT22;6623;52.120;8.660;2022-10-16T06:54:37;13.70;91.70
13115;DHT22;6623;52.120;8.660;2022-10-16T06:57:02;12.80;91.50
13115;DHT22;6623;52.120;8.660;2022-10-16T06:59:28;13.00;91.60
13115;DHT22;6623;52.120;8.660;2022-10-16T07:01:53;14.30;91.90
13115;DHT22;6623;52.120;8.660;2022-10-16T07:04:19;12.90;91.60
13115;DHT22;6623;52.120;8.660;2022-10-16T07:06:44;13.80;91.70
13115;DHT22;6623;52.120;8.660;2022-10-16T07:09:10;12.90;91.50
13115;DHT22;6623;52.120;8.660;2022-10-16T07:11:36;14.20;91.70
13115;DHT22;6623;52.120;8.660;2022-10-16T07:14:02;13.10;91.30
13115;DHT22;6623;52.120;8.660;2022-10-16T07:16:29;12.90;91.30
13115;DHT22;6623;52.120;8.660;2022-10-16T07:18:55;14.40;91.80
13115;DHT22;6623;52.120;8.660;2022-10-16T07:21:25;13.10;91.40
13115;DHT22;6623;52.120;8.660;2022-10-16T07:23:58;14.80;91.70
13115;DHT22;6623;52.120;8.660;2022-10-16T07:26:24;13.20;91.20
13115;DHT22;6623;52.120;8.660;2022-10-16T07:28:50;13.30;91.20
13115;DHT22;6623;52.120;8.660;2022-10-16T07:31:16;13.40;91.10
13115;DHT22;6623;52.120;8.660;2022-10-16T07:33:45;14.40;91.30
13115;DHT22;6623;52.120;8.660;2022-10-16T07:36:12;14.00;91.00
13115;DHT22;6623;52.120;8.660;2022-10-16T07:38:38;14.50;91.10
13115;DHT22;6623;52.120;8.660;2022-10-16T07:41:04;13.70;90.70
13115;DHT22;6623;52.120;8.660;2022-10-16T07:43:30;13.60;90.40
13115;DHT22;6623;52.120;8.660;2022-10-16T07:45:56;14.20;90.50
13115;DHT22;6623;52.120;8.660;2022-10-16T07:48:22;13.70;90.30
13115;DHT22;6623;52.120;8.660;2022-10-16T07:50:48;13.70;90.30
13115;DHT22;6623;52.120;8.660;2022-10-16T07:53:37;14.60;90.40
13115;DHT22;6623;52.120;8.660;2022-10-16T07:56:08;14.10;90.10
13115;DHT22;6623;52.120;8.660;2022-10-16T07:58:34;13.50;90.00
13115;DHT22;6623;52.120;8.660;2022-10-16T08:01:03;14.60;90.30
13115;DHT22;6623;52.120;8.660;2022-10-16T08:03:29;13.70;90.00
13115;DHT22;6623;52.120;8.660;2022-10-16T08:05:56;14.70;90.30
13115;DHT22;6623;52.120;8.660;2022-10-16T08:08:22;13.60;89.70
13115;DHT22;6623;52.120;8.660;2022-10-16T08:10:47;13.80;90.00
13115;DHT22;6623;52.120;8.660;2022-10-16T08:13:13;13.50;89.60
13115;DHT22;6623;52.120;8.660;2022-10-16T08:15:40;14.90;90.20
13115;DHT22;6623;52.120;8.660;2022-10-16T08:18:06;13.70;90.00
13115;DHT22;6623;52.120;8.660;2022-10-16T08:20:32;13.70;89.80
13115;DHT22;6623;52.120;8.660;2022-10-16T08:22:58;13.90;89.70
13115;DHT22;6623;52.120;8.660;2022-10-16T08:25:24;15.30;90.30
13115;DHT22;6623;52.120;8.660;2022-10-16T08:27:50;15.00;90.10
13115;DHT22;6623;52.120;8.660;2022-10-16T08:30:16;13.90;89.80
13115;DHT22;6623;52.120;8.660;2022-10-16T08:32:42;14.50;89.50
13115;DHT22;6623;52.120;8.660;2022-10-16T08:35:08;14.00;89.30
13115;DHT22;6623;52.120;8.660;2022-10-16T08:37:34;14.80;89.80
13115;DHT22;6623;52.120;8.660;2022-10-16T08:40:00;14.90;90.10
13115;DHT22;6623;52.120;8.660;2022-10-16T08:42:35;14.50;89.90
13115;DHT22;6623;52.120;8.660;2022-10-16T08:45:15;14.10;88.90
13115;DHT22;6623;52.120;8.660;2022-10-16T08:50:30;14.10;88.80
13115;DHT22;6623;52.120;8.660;2022-10-16T08:52:57;14.20;89.00
13115;DHT22;6623;52.120;8.660;2022-10-16T08:55:41;15.50;89.40
13115;DHT22;6623;52.120;8.660;2022-10-16T08:58:15;14.20;88.50
13115;DHT22;6623;52.120;8.660;2022-10-16T09:00:41;14.20;88.20
13115;DHT22;6623;52.120;8.660;2022-10-16T09:10:55;14.30;88.20
13115;DHT22;6623;52.120;8.660;2022-10-16T09:13:29;15.60;89.00
13115;DHT22;6623;52.120;8.660;2022-10-16T09:16:08;14.40;87.00
13115;DHT22;6623;52.120;8.660;2022-10-16T09:18:38;14.40;87.20
13115;DHT22;6623;52.120;8.660;2022-10-16T09:23:36;14.50;87.00
13115;DHT22;6623;52.120;8.660;2022-10-16T09:26:02;14.60;85.80
13115;DHT22;6623;52.120;8.660;2022-10-16T09:28:28;15.90;86.30
13115;DHT22;6623;52.120;8.660;2022-10-16T09:31:03;14.70;85.50
13115;DHT22;6623;52.120;8.660;2022-10-16T09:33:37;14.90;85.60
13115;DHT22;6623;52.120;8.660;2022-10-16T09:36:04;14.80;84.20
13115;DHT22;6623;52.120;8.660;2022-10-16T09:38:32;14.90;83.70
13115;DHT22;6623;52.120;8.660;2022-10-16T09:41:01;15.10;83.00
13115;DHT22;6623;52.120;8.660;2022-10-16T09:43:32;14.90;82.70
13115;DHT22;6623;52.120;8.660;2022-10-16T09:46:01;14.90;82.30
13115;DHT22;6623;52.120;8.660;2022-10-16T09:48:31;15.20;82.20
13115;DHT22;6623;52.120;8.660;2022-10-16T09:51:46;15.30;82.30
13115;DHT22;6623;52.120;8.660;2022-10-16T09:56:33;15.10;81.60
13115;DHT22;6623;52.120;8.660;2022-10-16T09:59:22;15.40;82.30
13115;DHT22;6623;52.120;8.660;2022-10-16T10:01:55;15.70;82.30
13115;DHT22;6623;52.120;8.660;2022-10-16T10:04:21;15.20;79.90
13115;DHT22;6623;52.120;8.660;2022-10-16T10:06:48;15.30;79.60
13115;DHT22;6623;52.120;8.660;2022-10-16T10:11:50;15.30;79.60
13115;DHT22;6623;52.120;8.660;2022-10-16T10:14:26;15.50;80.10
13115;DHT22;6623;52.120;8.660;2022-10-16T10:17:02;15.40;79.00
13115;DHT22;6623;52.120;8.660;2022-10-16T10:19:27;16.30;79.80
13115;DHT22;6623;52.120;8.660;2022-10-16T10:21:53;16.70;79.70
13115;DHT22;6623;52.120;8.660;2022-10-16T10:24:19;16.70;79.80
13115;DHT22;6623;52.120;8.660;2022-10-16T10:27:02;16.80;79.80
13115;DHT22;6623;52.120;8.660;2022-10-16T10:29:51;15.70;78.90
13115;DHT22;6623;52.120;8.660;2022-10-16T10:32:38;15.80;77.40
13115;DHT22;6623;52.120;8.660;2022-10-16T10:35:13;15.80;77.90
13115;DHT22;6623;52.120;8.660;2022-10-16T10:42:41;15.90;75.90
13115;DHT22;6623;52.120;8.660;2022-10-16T10:47:52;15.90;76.40
13115;DHT22;6623;52.120;8.660;2022-10-16T10:52:50;15.90;76.70
13115;DHT22;6623;52.120;8.660;2022-10-16T11:01:03;16.10;75.50
13115;DHT22;6623;52.120;8.660;2022-10-16T11:06:24;17.30;75.10
13115;DHT22;6623;52.120;8.660;2022-10-16T11:08:52;16.60;74.40
13115;DHT22;6623;52.120;8.660;2022-10-16T11:11:35;16.50;74.70
13115;DHT22;6623;52.120;8.660;2022-10-16T11:14:10;16.30;73.80
13115;DHT22;6623;52.120;8.660;2022-10-16T11:17:22;16.30;74.40
13115;DHT22;6623;52.120;8.660;2022-10-16T11:24:45;16.20;73.00
13115;DHT22;6623;52.120;8.660;2022-10-16T11:27:14;16.20;72.50
13115;DHT22;6623;52.120;8.660;2022-10-16T11:32:40;16.40;72.40
13115;DHT22;6623;52.120;8.660;2022-10-16T11:37:59;16.50;72.80
13115;DHT22;6623;52.120;8.660;2022-10-16T11:43:02;16.40;71.00
13115;DHT22;6623;52.120;8.660;2022-10-16T11:45:46;16.40;70.80
13115;DHT22;6623;52.120;8.660;2022-10-16T11:50:55;16.40;71.30
13115;DHT22;6623;52.120;8.660;2022-10-16T11:55:47;16.20;71.10
13115;DHT22;6623;52.120;8.660;2022-10-16T12:01:02;16.30;70.80
13115;DHT22;6623;52.120;8.660;2022-10-16T12:03:32;16.30;70.70
13115;DHT22;6623;52.120;8.660;2022-10-16T12:08:31;16.50;69.80
13115;DHT22;6623;52.120;8.660;2022-10-16T12:11:09;16.60;69.20
13115;DHT22;6623;52.120;8.660;2022-10-16T12:13:36;16.60;68.20
13115;DHT22;6623;52.120;8.660;2022-10-16T12:18:37;16.60;69.40
13115;DHT22;6623;52.120;8.660;2022-10-16T12:21:02;16.80;69.70
13115;DHT22;6623;52.120;8.660;2022-10-16T12:24:05;16.60;69.20
13115;DHT22;6623;52.120;8.660;2022-10-16T12:26:25;16.60;68.60
13115;DHT22;6623;52.120;8.660;2022-10-16T12:28:50;16.90;69.00
13115;DHT22;6623;52.120;8.660;2022-10-16T12:31:16;17.00;69.30
13115;DHT22;6623;52.120;8.660;2022-10-16T12:33:51;17.30;69.20
13115;DHT22;6623;52.120;8.660;2022-10-16T12:36:32;16.80;68.70
13115;DHT22;6623;52.120;8.660;2022-10-16T12:38:58;16.80;68.50
13115;DHT22;6623;52.120;8.660;2022-10-16T12:41:25;17.00;68.90
13115;DHT22;6623;52.120;8.660;2022-10-16T12:43:52;16.80;68.70
13115;DHT22;6623;52.120;8.660;2022-10-16T12:48:43;17.00;69.00
13115;DHT22;6623;52.120;8.660;2022-10-16T12:51:10;16.80;69.20
13115;DHT22;6623;52.120;8.660;2022-10-16T12:53:36;16.80;68.90
13115;DHT22;6623;52.120;8.660;2022-10-16T12:56:14;17.20;69.00
13115;DHT22;6623;52.120;8.660;2022-10-16T13:01:11;17.30;68.70
13115;DHT22;6623;52.120;8.660;2022-10-16T13:03:59;17.90;68.60
13115;DHT22;6623;52.120;8.660;2022-10-16T13:11:51;17.10;68.50
13115;DHT22;6623;52.120;8.660;2022-10-16T13:19:27;17.20;67.70
13115;DHT22;6623;52.120;8.660;2022-10-16T13:27:03;18.60;69.70
13115;DHT22;6623;52.120;8.660;2022-10-16T13:29:32;17.20;68.90
13115;DHT22;6623;52.120;8.660;2022-10-16T13:31:59;17.90;69.60
13115;DHT22;6623;52.120;8.660;2022-10-16T13:34:26;17.40;69.60
13115;DHT22;6623;52.120;8.660;2022-10-16T13:36:52;17.40;69.70
13115;DHT22;6623;52.120;8.660;2022-10-16T13:39:22;17.20;69.80
13115;DHT22;6623;52.120;8.660;2022-10-16T13:44:47;17.10;69.00
13115;DHT22;6623;52.120;8.660;2022-10-16T13:47:18;17.40;69.60
13115;DHT22;6623;52.120;8.660;2022-10-16T13:49:44;17.00;69.60
13115;DHT22;6623;52.120;8.660;2022-10-16T13:52:17;17.10;69.90
13115;DHT22;6623;52.120;8.660;2022-10-16T13:54:43;17.00;70.00
13115;DHT22;6623;52.120;8.660;2022-10-16T13:57:11;17.20;70.80
13115;DHT22;6623;52.120;8.660;2022-10-16T13:59:37;17.70;70.60
13115;DHT22;6623;52.120;8.660;2022-10-16T14:04:48;17.20;67.00
13115;DHT22;6623;52.120;8.660;2022-10-16T14:07:14;17.50;68.10
13115;DHT22;6623;52.120;8.660;2022-10-16T14:09:41;17.10;67.30
13115;DHT22;6623;52.120;8.660;2022-10-16T14:12:10;17.30;67.70
13115;DHT22;6623;52.120;8.660;2022-10-16T14:14:49;17.10;67.80
13115;DHT22;6623;52.120;8.660;2022-10-16T14:17:26;17.00;68.50
13115;DHT22;6623;52.120;8.660;2022-10-16T14:19:54;17.00;68.60
13115;DHT22;6623;52.120;8.660;2022-10-16T14:24:48;17.00;68.50
13115;DHT22;6623;52.120;8.660;2022-10-16T14:29:48;17.00;68.90
13115;DHT22;6623;52.120;8.660;2022-10-16T14:32:20;17.30;69.20
13115;DHT22;6623;52.120;8.660;2022-10-16T14:34:56;17.90;70.10
13115;DHT22;6623;52.120;8.660;2022-10-16T14:37:26;17.00;70.10
13115;DHT22;6623;52.120;8.660;2022-10-16T14:39:56;17.00;70.00
13115;DHT22;6623;52.120;8.660;2022-10-16T14:42:22;16.90;70.20
13115;DHT22;6623;52.120;8.660;2022-10-16T14:44:51;17.00;70.50
13115;DHT22;6623;52.120;8.660;2022-10-16T14:47:20;16.90;69.30
13115;DHT22;6623;52.120;8.660;2022-10-16T14:49:50;17.70;69.80
13115;DHT22;6623;52.120;8.660;2022-10-16T14:52:15;16.80;68.90
13115;DHT22;6623;52.120;8.660;2022-10-16T14:54:41;17.50;68.90
13115;DHT22;6623;52.120;8.660;2022-10-16T14:57:17;18.00;69.10
13115;DHT22;6623;52.120;8.660;2022-10-16T14:59:43;16.80;68.30
13115;DHT22;6623;52.120;8.660;2022-10-16T15:05:12;16.80;68.20
13115;DHT22;6623;52.120;8.660;2022-10-16T15:07:38;16.80;68.00
13115;DHT22;6623;52.120;8.660;2022-10-16T15:10:03;16.80;68.40
13115;DHT22;6623;52.120;8.660;2022-10-16T15:12:32;16.70;68.70
13115;DHT22;6623;52.120;8.660;2022-10-16T15:14:57;16.70;69.10
13115;DHT22;6623;52.120;8.660;2022-10-16T15:17:23;16.60;69.40
13115;DHT22;6623;52.120;8.660;2022-10-16T15:19:48;16.60;69.90
13115;DHT22;6623;52.120;8.660;2022-10-16T15:22:14;16.80;70.30
13115;DHT22;6623;52.120;8.660;2022-10-16T15:24:40;17.90;70.80
13115;DHT22;6623;52.120;8.660;2022-10-16T15:27:08;16.70;70.20
13115;DHT22;6623;52.120;8.660;2022-10-16T15:29:34;16.70;70.00
13115;DHT22;6623;52.120;8.660;2022-10-16T15:31:59;17.70;70.70
13115;DHT22;6623;52.120;8.660;2022-10-16T15:34:25;17.00;70.20
13115;DHT22;6623;52.120;8.660;2022-10-16T15:36:50;16.90;70.50
13115;DHT22;6623;52.120;8.660;2022-10-16T15:39:17;16.70;70.60
13115;DHT22;6623;52.120;8.660;2022-10-16T15:41:47;17.10;70.70
13115;DHT22;6623;52.120;8.660;2022-10-16T15:44:25;16.70;70.70
13115;DHT22;6623;52.120;8.660;2022-10-16T15:46:55;16.60;70.70
13115;DHT22;6623;52.120;8.660;2022-10-16T15:49:21;16.90;71.20
13115;DHT22;6623;52.120;8.660;2022-10-16T15:51:47;16.70;71.50
13115;DHT22;6623;52.120;8.660;2022-10-16T15:54:12;16.50;71.50
13115;DHT22;6623;52.120;8.660;2022-10-16T15:56:38;17.00;72.10
13115;DHT22;6623;52.120;8.660;2022-10-16T15:59:04;17.60;72.70
13115;DHT22;6623;52.120;8.660;2022-10-16T16:01:33;16.40;72.20
13115;DHT22;6623;52.120;8.660;2022-10-16T16:03:59;16.30;72.20
13115;DHT22;6623;52.120;8.660;2022-10-16T16:06:29;16.60;72.60
13115;DHT22;6623;52.120;8.660;2022-10-16T16:08:54;16.90;72.80
13115;DHT22;6623;52.120;8.660;2022-10-16T16:11:20;16.20;72.60
13115;DHT22;6623;52.120;8.660;2022-10-16T16:13:52;16.20;72.80
13115;DHT22;6623;52.120;8.660;2022-10-16T16:16:19;16.10;73.00
13115;DHT22;6623;52.120;8.660;2022-10-16T16:18:45;16.60;73.40
13115;DHT22;6623;52.120;8.660;2022-10-16T16:21:11;16.60;73.50
13115;DHT22;6623;52.120;8.660;2022-10-16T16:23:37;16.20;73.40
13115;DHT22;6623;52.120;8.660;2022-10-16T16:26:13;16.20;73.40
13115;DHT22;6623;52.120;8.660;2022-10-16T16:28:39;16.20;73.50
13115;DHT22;6623;52.120;8.660;2022-10-16T16:31:05;16.30;73.50
13115;DHT22;6623;52.120;8.660;2022-10-16T16:33:30;16.60;73.80
13115;DHT22;6623;52.120;8.660;2022-10-16T16:35:57;16.20;73.70
13115;DHT22;6623;52.120;8.660;2022-10-16T16:38:23;16.20;73.80
13115;DHT22;6623;52.120;8.660;2022-10-16T16:40:48;16.50;74.00
13115;DHT22;6623;52.120;8.660;2022-10-16T16:43:14;16.20;74.00
13115;DHT22;6623;52.120;8.660;2022-10-16T16:45:39;16.20;74.10
13115;DHT22;6623;52.120;8.660;2022-10-16T16:48:05;16.20;74.20
13115;DHT22;6623;52.120;8.660;2022-10-16T16:50:35;16.20;74.20
13115;DHT22;6623;52.120;8.660;2022-10-16T16:53:01;16.20;74.30
13115;DHT22;6623;52.120;8.660;2022-10-16T16:55:26;17.10;75.50
13115;DHT22;6623;52.120;8.660;2022-10-16T16:57:52;16.40;75.50
13115;DHT22;6623;52.120;8.660;2022-10-16T17:00:17;16.10;75.20
13115;DHT22;6623;52.120;8.660;2022-10-16T17:02:43;16.80;76.00
13115;DHT22;6623;52.120;8.660;2022-10-16T17:05:16;16.70;76.00
13115;DHT22;6623;52.120;8.660;2022-10-16T17:07:42;16.10;75.60
13115;DHT22;6623;52.120;8.660;2022-10-16T17:10:08;16.30;76.00
13115;DHT22;6623;52.120;8.660;2022-10-16T17:12:34;16.10;75.90
13115;DHT22;6623;52.120;8.660;2022-10-16T17:14:59;16.80;76.50
13115;DHT22;6623;52.120;8.660;2022-10-16T17:17:31;16.60;77.40
13115;DHT22;6623;52.120;8.660;2022-10-16T17:19:56;16.00;76.70
13115;DHT22;6623;52.120;8.660;2022-10-16T17:22:22;16.00;76.80
13115;DHT22;6623;52.120;8.660;2022-10-16T17:24:48;16.40;77.10
13115;DHT22;6623;52.120;8.660;2022-10-16T17:27:15;16.80;77.30
13115;DHT22;6623;52.120;8.660;2022-10-16T17:29:43;16.30;77.20
13115;DHT22;6623;52.120;8.660;2022-10-16T17:32:09;15.90;77.00
13115;DHT22;6623;52.120;8.660;2022-10-16T17:34:34;16.40;77.40
13115;DHT22;6623;52.120;8.660;2022-10-16T17:37:00;15.80;77.40
13115;DHT22;6623;52.120;8.660;2022-10-16T17:39:26;15.70;77.40
13115;DHT22;6623;52.120;8.660;2022-10-16T17:41:51;15.70;77.50